Time;durP1;ratioP1;P1;durP2;ratioP2;P2;SDS_P1;SDS_P2;PMS_P1;PMS_P2;Temp;Humidity;BMP_temperature;BMP_pressure;BME280_temperature;BME280_humidity;BME280_pressure;Samples;Min_cycle;Max_cycle;Signal;HPM_P1;HPM_P2
2023/10/29 00:01:03;;;;;;;4.40;3.67;;;8.20;99.90;;;;;;5073915;28;20162;-78
2023/10/29 00:03:29;;;;;;;3.90;3.50;;;8.20;99.90;;;;;;5074575;28;20661;-80
2023/10/29 00:05:55;;;;;;;3.87;3.47;;;8.20;99.90;;;;;;5073743;28;20203;-81
2023/10/29 00:08:21;;;;;;;5.27;3.97;;;8.10;99.90;;;;;;5073192;28;20186;-81
2023/10/29 00:10:46;;;;;;;3.50;3.20;;;8.10;99.90;;;;;;5072846;28;20255;-79
2023/10/29 00:13:12;;;;;;;7.57;3.40;;;8.10;99.90;;;;;;5073417;28;20211;-81
2023/10/29 00:15:38;;;;;;;4.90;3.30;;;8.10;99.90;;;;;;5073289;28;20256;-81
2023/10/29 00:18:12;;;;;;;5.07;3.37;;;8.10;99.90;;;;;;5075991;28;20194;-82
2023/10/29 00:20:39;;;;;;;3.40;3.10;;;8.20;99.90;;;;;;5077384;28;20155;-81
2023/10/29 00:23:05;;;;;;;7.17;3.50;;;8.10;99.90;;;;;;5077134;28;20202;-80
2023/10/29 00:25:31;;;;;;;4.67;3.73;;;8.20;99.90;;;;;;5076318;28;20222;-79
2023/10/29 00:27:56;;;;;;;4.20;3.80;;;8.20;99.90;;;;;;5079108;28;20597;-79
2023/10/29 00:30:22;;;;;;;4.10;3.70;;;8.10;99.90;;;;;;5076715;28;20178;-80
2023/10/29 00:32:48;;;;;;;6.60;3.83;;;8.00;99.90;;;;;;5076909;28;20253;-79
2023/10/29 00:35:14;;;;;;;4.30;4.00;;;8.00;99.90;;;;;;5077056;28;20633;-79
2023/10/29 00:37:39;;;;;;;3.83;3.53;;;8.00;99.90;;;;;;5076229;28;20265;-79
2023/10/29 00:40:06;;;;;;;3.80;3.30;;;8.00;99.90;;;;;;5077378;28;20167;-78
2023/10/29 00:42:31;;;;;;;4.03;3.57;;;8.60;99.90;;;;;;5076038;28;20532;-80
2023/10/29 00:44:57;;;;;;;4.50;3.27;;;8.10;99.90;;;;;;5076363;28;20716;-80
2023/10/29 00:47:23;;;;;;;3.20;3.00;;;8.00;99.90;;;;;;5075034;28;20177;-80
2023/10/29 00:49:49;;;;;;;3.23;3.00;;;8.10;99.90;;;;;;5077532;28;20182;-79
2023/10/29 00:52:15;;;;;;;2.80;2.60;;;8.10;99.90;;;;;;5078730;28;20210;-80
2023/10/29 00:54:41;;;;;;;3.10;2.80;;;8.10;99.90;;;;;;5075435;28;20182;-80
2023/10/29 00:57:08;;;;;;;2.80;2.60;;;8.00;99.90;;;;;;5075203;28;20186;-81
2023/10/29 00:59:34;;;;;;;2.73;2.53;;;8.00;99.90;;;;;;5076973;28;20177;-80
2023/10/29 01:02:01;;;;;;;2.90;2.80;;;8.10;99.90;;;;;;5076721;28;20271;-81
2023/10/29 01:04:27;;;;;;;3.53;2.77;;;8.00;99.90;;;;;;5077909;28;20246;-80
2023/10/29 01:06:53;;;;;;;2.47;2.37;;;8.00;99.90;;;;;;5080181;28;20174;-79
2023/10/29 01:09:19;;;;;;;2.60;2.40;;;8.00;99.90;;;;;;5081234;28;20178;-80
2023/10/29 01:11:46;;;;;;;3.63;2.83;;;7.90;99.90;;;;;;5079767;28;20208;-80
2023/10/29 01:14:12;;;;;;;3.67;2.83;;;8.00;99.90;;;;;;5080860;28;20242;-80
2023/10/29 01:16:39;;;;;;;2.80;2.60;;;8.00;99.90;;;;;;5079117;28;20192;-80
2023/10/29 01:19:04;;;;;;;2.40;2.30;;;8.00;99.90;;;;;;5080964;28;20179;-79
2023/10/29 01:21:31;;;;;;;2.30;2.20;;;8.10;99.90;;;;;;5077097;28;20178;-79
2023/10/29 01:23:57;;;;;;;2.27;2.10;;;8.10;99.90;;;;;;5076716;28;20179;-79
2023/10/29 01:26:24;;;;;;;2.63;2.53;;;8.10;99.90;;;;;;5078213;28;20236;-83
2023/10/29 01:28:50;;;;;;;2.20;2.10;;;8.10;99.90;;;;;;5078739;28;20661;-82
2023/10/29 01:31:16;;;;;;;2.17;2.07;;;8.00;99.90;;;;;;5076039;28;20782;-81
2023/10/29 01:33:42;;;;;;;1.90;1.80;;;8.00;99.90;;;;;;5077115;28;20264;-80
2023/10/29 01:36:08;;;;;;;2.57;2.37;;;8.00;99.90;;;;;;5075520;28;20183;-81
2023/10/29 01:38:33;;;;;;;2.27;2.17;;;7.90;99.90;;;;;;5076021;28;20892;-81
2023/10/29 01:41:00;;;;;;;3.90;2.27;;;7.90;99.90;;;;;;5075312;28;20186;-80
2023/10/29 01:43:26;;;;;;;2.53;2.00;;;7.90;99.90;;;;;;5076943;28;20185;-82
2023/10/29 01:45:52;;;;;;;3.77;2.27;;;7.80;99.90;;;;;;5078831;28;20174;-80
2023/10/29 01:48:18;;;;;;;2.03;1.93;;;7.70;99.90;;;;;;5075569;28;20185;-79
2023/10/29 01:50:43;;;;;;;2.10;2.00;;;7.70;99.90;;;;;;5075159;28;20204;-79
2023/10/29 01:53:09;;;;;;;1.73;1.70;;;7.80;99.90;;;;;;5075158;28;20189;-79
2023/10/29 01:55:36;;;;;;;2.17;2.07;;;7.70;99.90;;;;;;5075625;28;20167;-81
2023/10/29 01:58:02;;;;;;;2.17;2.07;;;7.80;99.90;;;;;;5077506;28;20181;-80
2023/10/29 02:00:28;;;;;;;2.30;2.10;;;7.80;99.90;;;;;;5075580;28;20174;-82
2023/10/29 02:02:54;;;;;;;1.87;1.80;;;7.70;99.90;;;;;;5075203;28;20192;-81
2023/10/29 02:05:21;;;;;;;2.70;2.03;;;7.60;99.90;;;;;;5074214;28;20592;-81
2023/10/29 02:07:47;;;;;;;2.00;1.90;;;7.60;99.90;;;;;;5074890;28;20174;-82
2023/10/29 02:10:13;;;;;;;4.27;2.03;;;7.60;99.90;;;;;;5074753;28;20244;-80
2023/10/29 02:12:38;;;;;;;2.67;2.47;;;7.50;99.90;;;;;;5075128;28;20664;-82
2023/10/29 02:15:05;;;;;;;2.90;2.37;;;7.50;99.90;;;;;;5080218;28;20214;-80
2023/10/29 02:17:31;;;;;;;2.00;1.90;;;7.50;99.90;;;;;;5076680;28;20172;-79
2023/10/29 02:19:57;;;;;;;2.00;1.90;;;7.50;99.90;;;;;;5074493;28;20202;-79
2023/10/29 02:22:24;;;;;;;3.80;2.20;;;7.40;99.90;;;;;;5074658;28;20183;-80
2023/10/29 02:24:50;;;;;;;2.50;2.40;;;7.40;99.90;;;;;;5077576;28;20184;-80
2023/10/29 02:27:16;;;;;;;2.80;2.60;;;7.40;99.90;;;;;;5087679;28;20229;-82
2023/10/29 02:29:42;;;;;;;3.07;2.87;;;7.40;99.90;;;;;;5078028;28;20170;-79
2023/10/29 02:32:08;;;;;;;3.70;3.40;;;7.40;99.90;;;;;;5078634;28;20210;-80
2023/10/29 02:34:34;;;;;;;4.40;4.00;;;7.30;99.90;;;;;;5074382;28;20200;-79
2023/10/29 02:37:01;;;;;;;4.37;3.87;;;7.20;99.90;;;;;;5075355;28;20193;-80
2023/10/29 02:39:27;;;;;;;4.57;4.17;;;7.30;99.90;;;;;;5078375;28;20175;-81
2023/10/29 02:41:52;;;;;;;5.27;4.57;;;7.30;99.90;;;;;;5075899;28;20212;-81
2023/10/29 02:44:18;;;;;;;5.73;4.07;;;7.40;99.90;;;;;;5076538;28;20249;-78
2023/10/29 02:46:44;;;;;;;4.17;3.87;;;7.30;99.90;;;;;;5075901;28;20189;-79
2023/10/29 02:49:10;;;;;;;5.07;4.43;;;7.30;99.90;;;;;;5074123;28;20155;-82
2023/10/29 02:51:35;;;;;;;5.10;4.70;;;7.30;99.90;;;;;;5074477;28;20692;-81
2023/10/29 02:54:02;;;;;;;4.77;4.37;;;7.40;99.90;;;;;;5073492;28;20179;-81
2023/10/29 02:56:28;;;;;;;4.63;4.20;;;9.10;99.90;;;;;;5073932;28;20173;-80
2023/10/29 02:58:53;;;;;;;4.27;3.90;;;7.40;99.90;;;;;;5073818;28;20184;-80
2023/10/29 03:01:19;;;;;;;3.80;3.50;;;7.30;99.90;;;;;;5074097;28;20554;-83
2023/10/29 03:03:45;;;;;;;3.97;3.67;;;7.40;99.90;;;;;;5072622;28;20233;-82
2023/10/29 03:06:11;;;;;;;4.10;3.70;;;7.30;99.90;;;;;;5073965;28;20277;-82
2023/10/29 03:08:36;;;;;;;4.20;3.83;;;7.30;99.90;;;;;;5073288;28;20184;-81
2023/10/29 03:11:03;;;;;;;3.80;3.50;;;7.30;99.90;;;;;;5073966;28;20268;-81
2023/10/29 03:13:29;;;;;;;5.47;3.40;;;7.30;99.90;;;;;;5074454;28;20201;-80
2023/10/29 03:15:56;;;;;;;3.97;3.00;;;7.30;99.90;;;;;;5075007;28;20179;-81
2023/10/29 03:18:22;;;;;;;3.00;2.70;;;7.20;99.90;;;;;;5073636;28;20265;-82
2023/10/29 03:20:48;;;;;;;2.70;2.50;;;7.20;99.90;;;;;;5075937;28;20216;-80
2023/10/29 03:23:14;;;;;;;2.97;2.50;;;7.30;99.90;;;;;;5074056;28;20177;-81
2023/10/29 03:25:40;;;;;;;2.30;2.10;;;7.40;99.90;;;;;;5072267;28;20272;-82
2023/10/29 03:28:06;;;;;;;2.73;2.33;;;7.20;99.90;;;;;;5073475;28;20225;-79
2023/10/29 03:30:32;;;;;;;3.90;2.40;;;7.10;99.90;;;;;;5073809;28;20774;-78
2023/10/29 03:32:59;;;;;;;2.30;2.20;;;7.10;99.90;;;;;;5075062;28;20192;-79
2023/10/29 03:35:27;;;;;;;2.10;2.00;;;7.10;99.90;;;;;;5072677;28;20315;-80
2023/10/29 03:37:53;;;;;;;2.73;2.53;;;7.20;99.90;;;;;;5074201;28;20265;-80
2023/10/29 03:40:19;;;;;;;2.20;2.10;;;7.20;99.90;;;;;;5073696;28;20206;-79
2023/10/29 03:42:44;;;;;;;3.83;2.23;;;7.20;99.90;;;;;;5075385;28;20264;-81
2023/10/29 03:45:11;;;;;;;2.20;2.10;;;7.30;99.90;;;;;;5075358;28;20184;-81
2023/10/29 03:47:37;;;;;;;2.40;2.20;;;7.30;99.90;;;;;;5087143;28;20251;-81
2023/10/29 03:50:03;;;;;;;2.40;2.20;;;7.20;99.90;;;;;;5080186;28;20180;-82
2023/10/29 03:52:29;;;;;;;2.10;2.00;;;7.30;99.90;;;;;;5079709;28;20210;-80
2023/10/29 03:54:54;;;;;;;2.10;2.00;;;7.20;99.90;;;;;;5078623;28;20177;-80
2023/10/29 03:57:20;;;;;;;2.17;2.07;;;7.20;99.90;;;;;;5078760;28;20314;-83
2023/10/29 03:59:46;;;;;;;2.57;2.37;;;7.20;99.90;;;;;;5078793;28;20195;-81
2023/10/29 04:02:11;;;;;;;2.20;2.10;;;7.30;99.90;;;;;;5078413;28;20232;-81
2023/10/29 04:04:37;;;;;;;2.30;2.20;;;7.20;99.90;;;;;;5078519;28;20196;-80
2023/10/29 04:07:03;;;;;;;2.07;1.97;;;7.20;99.90;;;;;;5080462;28;20190;-80
2023/10/29 04:09:29;;;;;;;2.80;2.40;;;7.20;99.90;;;;;;5079387;28;20279;-81
2023/10/29 04:11:55;;;;;;;2.27;2.03;;;7.20;99.90;;;;;;5077405;28;20205;-81
2023/10/29 04:14:21;;;;;;;3.70;2.07;;;7.30;99.90;;;;;;5077572;28;20169;-81
2023/10/29 04:16:47;;;;;;;2.67;2.47;;;7.10;99.90;;;;;;5077134;28;20208;-81
2023/10/29 04:19:13;;;;;;;2.17;2.07;;;7.10;99.90;;;;;;5078334;28;20182;-80
2023/10/29 04:21:39;;;;;;;2.33;2.23;;;7.20;99.90;;;;;;5078429;28;20177;-80
2023/10/29 04:24:05;;;;;;;2.83;2.57;;;7.10;99.90;;;;;;5077600;28;20183;-81
2023/10/29 04:26:32;;;;;;;2.53;2.43;;;7.10;99.90;;;;;;5085234;28;20244;-79
2023/10/29 04:28:59;;;;;;;2.13;2.03;;;7.10;99.90;;;;;;5077281;28;20182;-80
2023/10/29 04:31:24;;;;;;;2.40;2.30;;;7.20;99.90;;;;;;5076687;28;20215;-79
2023/10/29 04:33:51;;;;;;;2.43;2.33;;;7.20;99.90;;;;;;5077940;28;20188;-80
2023/10/29 04:36:22;;;;;;;2.53;2.43;;;7.20;99.90;;;;;;5077937;28;20174;-81
2023/10/29 04:38:48;;;;;;;2.20;2.10;;;7.10;99.90;;;;;;5078583;28;20672;-80
2023/10/29 04:41:14;;;;;;;2.43;2.33;;;7.00;99.90;;;;;;5077145;28;20205;-80
2023/10/29 04:43:43;;;;;;;2.30;2.20;;;7.00;99.90;;;;;;5078685;28;20178;-81
2023/10/29 04:46:12;;;;;;;2.37;2.27;;;7.00;99.90;;;;;;5092489;28;20156;-81
2023/10/29 04:48:38;;;;;;;2.97;2.77;;;7.00;99.90;;;;;;5082764;28;20583;-82
2023/10/29 04:51:07;;;;;;;2.80;2.60;;;7.00;99.90;;;;;;5079116;28;20239;-80
2023/10/29 04:53:37;;;;;;;3.67;3.23;;;7.10;99.90;;;;;;5077985;28;20503;-81
2023/10/29 04:56:03;;;;;;;2.70;2.50;;;7.10;99.90;;;;;;5077748;28;20162;-81
2023/10/29 04:58:31;;;;;;;6.70;3.27;;;7.10;99.90;;;;;;5077771;28;20174;-81
2023/10/29 05:00:57;;;;;;;3.40;3.10;;;7.10;99.90;;;;;;5076663;28;20193;-80
2023/10/29 05:03:23;;;;;;;3.20;3.00;;;7.10;99.90;;;;;;5079398;28;20233;-80
2023/10/29 05:05:49;;;;;;;2.90;2.70;;;7.10;99.90;;;;;;5076394;28;20183;-81
2023/10/29 05:08:15;;;;;;;2.93;2.73;;;7.20;99.90;;;;;;5078594;28;20175;-82
2023/10/29 05:10:44;;;;;;;3.00;2.80;;;7.30;99.90;;;;;;5078474;28;20170;-80
2023/10/29 05:13:10;;;;;;;2.83;2.70;;;7.20;99.90;;;;;;5078187;28;20233;-79
2023/10/29 05:15:36;;;;;;;3.10;2.87;;;7.10;99.90;;;;;;5076648;28;20169;-80
2023/10/29 05:18:02;;;;;;;3.00;2.80;;;7.10;99.90;;;;;;5078073;28;20242;-80
2023/10/29 05:20:27;;;;;;;2.70;2.47;;;7.00;99.90;;;;;;5077565;28;20632;-81
2023/10/29 05:22:53;;;;;;;3.23;2.97;;;7.10;99.90;;;;;;5075428;28;20184;-80
2023/10/29 05:25:22;;;;;;;2.90;2.70;;;7.10;99.90;;;;;;5077871;28;20639;-80
2023/10/29 05:27:55;;;;;;;3.90;2.27;;;8.80;99.90;;;;;;5076194;28;20173;-81
2023/10/29 05:30:22;;;;;;;3.33;2.33;;;7.10;99.90;;;;;;5075304;28;20240;-80
2023/10/29 05:32:48;;;;;;;2.63;2.43;;;7.00;99.90;;;;;;5076526;28;20209;-80
2023/10/29 05:35:14;;;;;;;2.77;2.57;;;7.10;99.90;;;;;;5076501;28;20182;-80
2023/10/29 05:37:40;;;;;;;2.40;2.20;;;7.10;99.90;;;;;;5076107;28;20175;-80
2023/10/29 05:40:09;;;;;;;3.43;3.23;;;7.10;99.90;;;;;;5075990;28;20189;-80
2023/10/29 05:42:35;;;;;;;2.43;2.30;;;7.10;99.90;;;;;;5076556;28;20181;-80
2023/10/29 05:45:00;;;;;;;3.07;2.87;;;7.00;99.90;;;;;;5076863;28;20208;-80
2023/10/29 05:47:26;;;;;;;3.33;3.10;;;7.00;99.90;;;;;;5076451;28;20167;-81
2023/10/29 05:49:54;;;;;;;3.07;2.87;;;7.00;99.90;;;;;;5076350;28;20178;-81
2023/10/29 05:52:20;;;;;;;5.50;2.90;;;7.00;99.90;;;;;;5074528;28;20305;-82
2023/10/29 05:54:46;;;;;;;5.30;3.57;;;7.00;99.90;;;;;;5079308;28;20193;-80
2023/10/29 05:57:12;;;;;;;3.90;3.60;;;7.00;99.90;;;;;;5083548;28;20179;-81
2023/10/29 05:59:37;;;;;;;5.83;3.30;;;7.00;99.90;;;;;;5075424;28;20196;-80
2023/10/29 06:02:03;;;;;;;4.37;3.23;;;7.00;99.90;;;;;;5075006;28;20171;-81
2023/10/29 06:04:29;;;;;;;4.03;3.30;;;7.30;99.90;;;;;;5076229;28;20186;-81
2023/10/29 06:06:55;;;;;;;3.80;3.50;;;7.10;99.90;;;;;;5074256;28;20297;-81
2023/10/29 06:09:21;;;;;;;4.00;3.70;;;7.10;99.90;;;;;;5075221;28;20185;-81
2023/10/29 06:11:47;;;;;;;5.83;4.20;;;7.20;99.90;;;;;;5078897;28;20592;-81
2023/10/29 06:14:13;;;;;;;4.07;3.67;;;7.20;99.90;;;;;;5076313;28;20233;-81
2023/10/29 06:16:38;;;;;;;4.80;4.03;;;7.20;99.90;;;;;;5074362;28;20551;-81
2023/10/29 06:19:04;;;;;;;4.47;4.07;;;7.30;99.90;;;;;;5075326;28;20171;-81
2023/10/29 06:21:30;;;;;;;6.10;4.07;;;7.30;99.90;;;;;;5075822;28;20171;-81
2023/10/29 06:23:57;;;;;;;5.23;4.83;;;7.40;99.90;;;;;;5073932;28;20190;-81
2023/10/29 06:26:23;;;;;;;5.80;5.17;;;7.60;99.90;;;;;;5087549;28;20244;-81
2023/10/29 06:28:49;;;;;;;6.47;5.17;;;7.70;99.90;;;;;;5076192;28;20242;-80
2023/10/29 06:31:15;;;;;;;5.70;5.10;;;7.90;99.90;;;;;;5077382;28;20207;-81
2023/10/29 06:33:41;;;;;;;5.33;4.83;;;8.00;99.90;;;;;;5080234;28;20231;-80
2023/10/29 06:36:08;;;;;;;5.40;4.90;;;8.10;99.90;;;;;;5075965;28;20182;-82
2023/10/29 06:38:34;;;;;;;5.73;4.67;;;8.20;99.90;;;;;;5074388;28;20174;-80
2023/10/29 06:40:59;;;;;;;6.77;4.97;;;8.30;99.90;;;;;;5075446;28;20260;-80
2023/10/29 06:43:26;;;;;;;5.40;4.90;;;8.60;99.90;;;;;;5075359;28;20612;-80
2023/10/29 06:45:52;;;;;;;6.03;5.23;;;8.40;99.90;;;;;;5075198;28;20193;-80
2023/10/29 06:48:18;;;;;;;5.17;4.67;;;8.50;99.90;;;;;;5073806;28;20186;-79
2023/10/29 06:50:46;;;;;;;5.40;4.90;;;8.70;99.90;;;;;;5076584;28;20184;-78
2023/10/29 06:53:12;;;;;;;5.63;5.13;;;8.80;99.90;;;;;;5073528;28;20189;-82
2023/10/29 06:55:40;;;;;;;9.20;5.53;;;9.00;99.90;;;;;;5075758;28;20186;-80
2023/10/29 06:58:05;;;;;;;5.33;4.87;;;9.00;99.90;;;;;;5075344;28;20649;-80
2023/10/29 07:00:31;;;;;;;5.17;4.47;;;9.00;99.90;;;;;;5075308;28;20172;-81
2023/10/29 07:02:59;;;;;;;5.17;4.67;;;9.10;99.90;;;;;;5076555;28;20175;-79
2023/10/29 07:05:25;;;;;;;4.57;4.17;;;9.10;99.90;;;;;;5074477;28;20261;-81
2023/10/29 07:07:51;;;;;;;5.53;4.53;;;9.10;99.90;;;;;;5075386;28;20175;-81
2023/10/29 07:10:18;;;;;;;6.77;4.80;;;9.20;99.90;;;;;;5072569;28;20174;-80
2023/10/29 07:12:43;;;;;;;5.50;5.00;;;9.30;99.90;;;;;;5074874;28;20230;-81
2023/10/29 07:15:10;;;;;;;5.27;4.67;;;9.30;99.90;;;;;;5075622;28;20167;-81
2023/10/29 07:17:36;;;;;;;5.27;4.77;;;9.40;99.90;;;;;;5076124;28;20171;-82
2023/10/29 07:20:03;;;;;;;6.77;4.40;;;9.40;99.90;;;;;;5076993;28;20194;-80
2023/10/29 07:22:30;;;;;;;6.27;4.83;;;8.80;99.90;;;;;;5072991;28;20238;-81
2023/10/29 07:24:56;;;;;;;5.17;4.50;;;9.50;99.90;;;;;;5073467;28;20165;-81
2023/10/29 07:27:21;;;;;;;4.67;4.27;;;9.50;99.90;;;;;;5074067;28;20227;-81
2023/10/29 07:29:47;;;;;;;4.50;4.10;;;9.60;99.90;;;;;;5074209;28;20175;-80
2023/10/29 07:32:13;;;;;;;5.17;4.00;;;9.60;99.90;;;;;;5072313;28;20210;-78
2023/10/29 07:34:39;;;;;;;10.50;5.50;;;9.60;99.90;;;;;;5074485;28;20276;-77
2023/10/29 07:37:05;;;;;;;7.30;4.57;;;9.60;99.90;;;;;;5074752;28;20175;-80
2023/10/29 07:39:30;;;;;;;4.83;4.10;;;9.60;99.90;;;;;;5073788;28;20207;-80
2023/10/29 07:41:56;;;;;;;4.83;4.00;;;9.60;99.90;;;;;;5074484;28;20195;-80
2023/10/29 07:44:25;;;;;;;6.23;3.80;;;9.70;99.90;;;;;;5076245;28;20192;-78
2023/10/29 07:46:51;;;;;;;4.47;4.03;;;9.70;99.90;;;;;;5087401;28;20689;-82
2023/10/29 07:49:17;;;;;;;4.80;4.27;;;9.80;99.90;;;;;;5073918;28;20171;-77
2023/10/29 07:51:43;;;;;;;4.47;4.00;;;9.90;99.90;;;;;;5073046;28;20209;-80
2023/10/29 07:54:09;;;;;;;4.83;4.40;;;9.90;99.90;;;;;;5075121;28;20289;-78
2023/10/29 07:56:34;;;;;;;4.97;4.47;;;9.90;99.90;;;;;;5074432;28;20204;-79
2023/10/29 07:59:00;;;;;;;4.50;4.10;;;9.90;99.90;;;;;;5078717;28;20178;-80
2023/10/29 08:01:26;;;;;;;25.23;18.03;;;10.00;99.90;;;;;;5074989;28;20528;-79
2023/10/29 08:03:55;;;;;;;6.63;5.77;;;10.00;99.90;;;;;;5074261;28;20175;-80
2023/10/29 08:06:21;;;;;;;4.73;4.33;;;10.10;99.90;;;;;;5074362;28;20665;-78
2023/10/29 08:08:47;;;;;;;4.83;4.30;;;10.30;99.90;;;;;;5074602;28;20178;-79
2023/10/29 08:11:22;;;;;;;4.50;4.10;;;10.40;99.90;;;;;;5076236;28;20214;-80
2023/10/29 08:13:48;;;;;;;4.97;4.07;;;10.40;99.90;;;;;;5081326;28;20157;-81
2023/10/29 08:16:14;;;;;;;4.47;4.13;;;10.40;99.90;;;;;;5091303;28;20178;-79
2023/10/29 08:18:41;;;;;;;4.17;3.87;;;10.50;99.90;;;;;;5084150;28;20249;-79
2023/10/29 08:21:07;;;;;;;4.00;3.70;;;10.60;99.90;;;;;;5088667;28;20185;-79
2023/10/29 08:23:33;;;;;;;4.60;4.20;;;10.60;99.90;;;;;;5079636;28;20184;-79
2023/10/29 08:25:58;;;;;;;5.57;4.07;;;10.70;99.90;;;;;;5083966;28;20246;-81
2023/10/29 08:28:26;;;;;;;7.43;4.30;;;10.80;99.90;;;;;;5083847;28;20231;-80
2023/10/29 08:30:52;;;;;;;4.00;3.70;;;10.80;99.90;;;;;;5077350;28;20610;-79
2023/10/29 08:33:19;;;;;;;4.70;4.30;;;10.90;99.90;;;;;;5075565;28;20255;-79
2023/10/29 08:35:45;;;;;;;3.83;3.53;;;11.00;99.90;;;;;;5074329;28;20719;-76
2023/10/29 08:38:11;;;;;;;4.10;3.80;;;11.10;99.90;;;;;;5081605;28;20178;-82
2023/10/29 08:40:37;;;;;;;4.37;3.97;;;11.10;99.90;;;;;;5077764;28;20171;-77
2023/10/29 08:43:06;;;;;;;4.17;3.87;;;11.30;99.90;;;;;;5076659;28;20167;-78
2023/10/29 08:45:33;;;;;;;4.87;4.33;;;11.30;99.90;;;;;;5076714;28;20171;-80
2023/10/29 08:47:59;;;;;;;4.43;4.00;;;11.50;99.90;;;;;;5077201;28;20167;-80
2023/10/29 08:50:25;;;;;;;4.47;3.70;;;11.50;99.90;;;;;;5076715;28;20243;-80
2023/10/29 08:52:50;;;;;;;4.20;3.80;;;11.50;99.90;;;;;;5076261;28;20554;-78
2023/10/29 08:55:16;;;;;;;4.20;3.80;;;11.60;99.90;;;;;;5077435;28;20163;-80
2023/10/29 08:57:43;;;;;;;6.07;3.60;;;11.70;99.90;;;;;;5077316;28;20179;-77
2023/10/29 09:00:09;;;;;;;3.93;3.63;;;11.70;99.90;;;;;;5075842;28;20193;-78
2023/10/29 09:02:35;;;;;;;4.50;4.10;;;11.70;99.90;;;;;;5077307;28;20221;-79
2023/10/29 09:05:01;;;;;;;6.53;3.73;;;11.80;99.90;;;;;;5079718;28;20176;-78
2023/10/29 09:07:27;;;;;;;6.03;4.70;;;11.90;99.90;;;;;;5089140;28;20173;-79
2023/10/29 09:09:53;;;;;;;4.03;3.73;;;11.90;99.90;;;;;;5076375;28;20186;-80
2023/10/29 09:12:20;;;;;;;4.63;3.73;;;12.00;99.90;;;;;;5075122;28;20216;-79
2023/10/29 09:14:46;;;;;;;3.70;3.40;;;12.00;99.90;;;;;;5076043;28;20170;-77
2023/10/29 09:17:12;;;;;;;8.40;4.53;;;12.10;99.90;;;;;;5077030;28;20180;-79
2023/10/29 09:19:38;;;;;;;4.00;3.70;;;12.10;99.90;;;;;;5076745;28;20515;-78
2023/10/29 09:22:04;;;;;;;4.87;3.70;;;12.20;99.90;;;;;;5076793;28;20323;-79
2023/10/29 09:24:29;;;;;;;5.23;4.00;;;12.30;99.90;;;;;;5076218;28;20174;-81
2023/10/29 09:26:56;;;;;;;5.03;4.07;;;12.30;99.90;;;;;;5076779;28;20686;-80
2023/10/29 09:29:23;;;;;;;3.93;3.53;;;12.40;99.90;;;;;;5077160;28;20622;-78
2023/10/29 09:31:51;;;;;;;5.17;3.33;;;12.40;99.90;;;;;;5076440;28;20255;-78
2023/10/29 09:34:18;;;;;;;4.60;3.57;;;12.50;99.90;;;;;;5075717;28;20657;-79
2023/10/29 09:36:44;;;;;;;4.33;3.93;;;12.50;99.90;;;;;;5076497;28;20655;-77
2023/10/29 09:39:10;;;;;;;4.00;3.70;;;12.60;99.90;;;;;;5077593;28;20203;-79
2023/10/29 09:41:38;;;;;;;3.40;3.10;;;12.60;99.90;;;;;;5074545;28;20174;-80
2023/10/29 09:44:08;;;;;;;3.47;3.17;;;12.70;99.90;;;;;;5075388;28;20174;-78
2023/10/29 09:46:37;;;;;;;5.37;4.87;;;12.80;99.90;;;;;;5076194;28;20179;-79
2023/10/29 09:49:03;;;;;;;4.37;4.07;;;12.90;99.90;;;;;;5075205;28;20540;-79
2023/10/29 09:51:30;;;;;;;3.67;3.10;;;13.00;99.90;;;;;;5075621;28;20214;-79
2023/10/29 09:53:59;;;;;;;2.83;2.63;;;13.10;99.90;;;;;;5075571;28;20178;-78
2023/10/29 09:56:26;;;;;;;2.90;2.60;;;13.20;99.90;;;;;;5075538;28;20255;-79
2023/10/29 09:58:52;;;;;;;27.03;17.20;;;13.20;99.90;;;;;;5075323;28;20618;-79
2023/10/29 10:01:18;;;;;;;8.03;7.03;;;13.40;99.90;;;;;;5074707;28;20567;-77
2023/10/29 10:03:44;;;;;;;6.67;3.97;;;13.40;99.90;;;;;;5078501;28;20214;-81
2023/10/29 10:06:13;;;;;;;3.73;2.90;;;13.50;99.90;;;;;;5085230;28;20163;-79
2023/10/29 10:08:39;;;;;;;2.90;2.73;;;13.60;99.90;;;;;;5077367;28;20170;-78
2023/10/29 10:11:21;;;;;;;2.70;2.50;;;13.70;99.90;;;;;;5085238;28;20203;-81
2023/10/29 10:13:47;;;;;;;2.60;2.40;;;13.80;99.90;;;;;;5076099;28;20163;-81
2023/10/29 10:16:14;;;;;;;2.50;2.30;;;13.80;99.90;;;;;;5073915;28;20201;-82
2023/10/29 10:18:57;;;;;;;3.30;3.00;;;13.80;99.90;;;;;;5075125;28;20650;-78
2023/10/29 10:21:41;;;;;;;5.17;2.60;;;13.90;99.90;;;;;;5074322;28;20310;-78
2023/10/29 10:24:07;;;;;;;3.53;2.37;;;14.00;99.90;;;;;;5076005;28;20176;-81
2023/10/29 10:26:35;;;;;;;2.90;2.60;;;14.00;99.90;;;;;;5086270;28;20590;-79
2023/10/29 10:29:03;;;;;;;5.37;3.63;;;14.00;99.90;;;;;;5085188;28;20172;-78
2023/10/29 10:31:31;;;;;;;6.80;4.37;;;14.10;99.90;;;;;;5076073;28;20225;-77
2023/10/29 10:34:16;;;;;;;4.17;3.10;;;14.20;99.90;;;;;;5074319;28;20171;-78
2023/10/29 10:36:49;;;;;;;2.60;2.40;;;14.20;99.90;;;;;;5075047;28;20182;-77
2023/10/29 10:39:18;;;;;;;2.63;2.43;;;14.20;99.90;;;;;;5074486;28;20156;-82
2023/10/29 10:41:45;;;;;;;3.17;2.70;;;14.20;99.90;;;;;;5075066;28;20246;-78
2023/10/29 10:44:12;;;;;;;2.33;2.23;;;14.30;99.90;;;;;;5074809;28;20491;-78
2023/10/29 10:46:47;;;;;;;3.07;2.80;;;14.30;99.90;;;;;;5075466;28;20184;-80
2023/10/29 10:49:14;;;;;;;3.27;2.60;;;14.40;99.90;;;;;;5075370;28;20199;-79
2023/10/29 10:51:40;;;;;;;3.67;2.53;;;14.40;99.90;;;;;;5074131;28;20202;-79
2023/10/29 10:54:07;;;;;;;5.20;4.50;;;14.50;99.90;;;;;;5079208;28;20167;-79
2023/10/29 10:56:35;;;;;;;3.53;3.30;;;14.50;99.90;;;;;;5087060;28;20175;-81
2023/10/29 10:59:06;;;;;;;3.27;3.00;;;14.50;99.90;;;;;;5077125;28;20176;-80
2023/10/29 11:01:35;;;;;;;3.03;2.73;;;14.60;99.90;;;;;;5080501;28;20169;-79
2023/10/29 11:04:03;;;;;;;3.97;2.87;;;14.60;99.90;;;;;;5075324;28;20175;-78
2023/10/29 11:06:32;;;;;;;2.60;2.43;;;14.70;99.90;;;;;;5074397;28;20555;-80
2023/10/29 11:08:59;;;;;;;3.00;2.80;;;14.60;99.90;;;;;;5074981;28;20176;-79
2023/10/29 11:11:38;;;;;;;2.90;2.70;;;14.60;99.90;;;;;;5074742;28;20613;-80
2023/10/29 11:14:11;;;;;;;2.17;2.03;;;14.60;99.90;;;;;;5074993;28;20246;-79
2023/10/29 11:16:54;;;;;;;4.10;2.00;;;14.60;99.90;;;;;;5074588;28;20168;-79
2023/10/29 11:19:44;;;;;;;1.70;1.60;;;14.60;99.90;;;;;;5075189;28;20181;-78
2023/10/29 11:22:17;;;;;;;3.40;1.93;;;14.70;99.90;;;;;;5072800;28;20237;-78
2023/10/29 11:24:44;;;;;;;2.70;2.33;;;14.90;99.90;;;;;;5072852;28;20261;-79
2023/10/29 11:27:35;;;;;;;4.33;2.00;;;15.00;99.90;;;;;;5074795;28;20291;-79
2023/10/29 11:30:16;;;;;;;2.30;2.10;;;15.00;99.90;;;;;;5074319;28;20296;-81
2023/10/29 11:32:43;;;;;;;1.70;1.60;;;15.10;99.90;;;;;;5073688;28;20206;-81
2023/10/29 11:35:19;;;;;;;3.67;2.20;;;15.10;99.90;;;;;;5073137;28;20185;-79
2023/10/29 11:37:45;;;;;;;2.33;1.67;;;15.10;99.90;;;;;;5074892;28;20205;-79
2023/10/29 11:40:23;;;;;;;2.30;1.57;;;15.30;99.90;;;;;;5082825;28;20232;-80
2023/10/29 11:42:53;;;;;;;3.20;2.00;;;15.40;99.90;;;;;;5076869;28;20171;-79
2023/10/29 11:45:26;;;;;;;1.90;1.80;;;15.40;99.90;;;;;;5072904;28;20174;-79
2023/10/29 11:48:07;;;;;;;1.50;1.40;;;15.50;99.90;;;;;;5090662;28;20189;-81
2023/10/29 11:51:02;;;;;;;5.13;1.90;;;15.50;99.90;;;;;;5076101;28;20184;-80
2023/10/29 11:53:29;;;;;;;1.80;1.30;;;15.40;99.90;;;;;;5080346;28;20184;-81
2023/10/29 11:55:59;;;;;;;1.70;1.60;;;15.50;99.90;;;;;;5074552;28;20180;-78
2023/10/29 11:58:26;;;;;;;3.63;3.33;;;15.50;99.90;;;;;;5078053;28;20448;-78
2023/10/29 12:00:53;;;;;;;2.07;1.77;;;15.50;99.90;;;;;;5089897;28;20171;-83
2023/10/29 12:03:22;;;;;;;2.83;2.20;;;15.70;99.90;;;;;;5091514;28;20182;-83
2023/10/29 12:05:53;;;;;;;2.27;1.93;;;15.60;99.90;;;;;;5084931;28;20545;-77
2023/10/29 12:08:19;;;;;;;1.37;1.30;;;15.70;99.90;;;;;;5073926;28;20179;-79
2023/10/29 12:10:53;;;;;;;1.70;1.60;;;15.80;99.90;;;;;;5075013;28;20178;-79
2023/10/29 12:13:19;;;;;;;2.87;2.67;;;15.80;99.90;;;;;;5077615;28;20244;-80
2023/10/29 12:15:54;;;;;;;1.40;1.23;;;15.80;99.90;;;;;;5077761;28;20171;-78
2023/10/29 12:18:21;;;;;;;3.33;1.60;;;15.70;99.90;;;;;;5078102;28;20173;-81
2023/10/29 12:20:48;;;;;;;3.60;3.13;;;15.70;99.90;;;;;;5076503;28;20685;-80
2023/10/29 12:23:14;;;;;;;4.73;4.23;;;15.70;99.90;;;;;;5077848;28;20171;-79
2023/10/29 12:25:42;;;;;;;3.67;3.13;;;15.80;99.90;;;;;;5076457;28;20227;-81
2023/10/29 12:28:08;;;;;;;1.43;1.40;;;15.90;99.90;;;;;;5079422;28;20168;-79
2023/10/29 12:30:39;;;;;;;1.60;1.60;;;16.00;99.90;;;;;;5077410;28;20171;-80
2023/10/29 12:33:18;;;;;;;2.07;1.87;;;16.00;99.90;;;;;;5076122;28;20673;-83
2023/10/29 12:35:48;;;;;;;2.20;2.10;;;16.10;99.90;;;;;;5076639;28;20163;-80
2023/10/29 12:38:15;;;;;;;1.70;1.60;;;16.10;99.90;;;;;;5074787;28;20170;-82
2023/10/29 12:41:11;;;;;;;2.10;1.40;;;16.10;99.90;;;;;;5077338;28;20776;-79
2023/10/29 12:43:39;;;;;;;0.90;0.90;;;16.00;99.90;;;;;;5076928;28;20163;-79
2023/10/29 12:46:06;;;;;;;1.17;0.90;;;16.10;99.90;;;;;;5076835;28;20582;-84
2023/10/29 12:48:32;;;;;;;1.37;1.03;;;16.10;99.90;;;;;;5076678;28;20224;-80
2023/10/29 12:50:58;;;;;;;3.50;3.20;;;16.00;99.90;;;;;;5080217;28;20182;-82
2023/10/29 12:53:28;;;;;;;1.70;1.60;;;16.10;99.90;;;;;;5075437;28;20183;-81